Time;durP1;ratioP1;P1;durP2;ratioP2;P2;SDS_P1;SDS_P2;PMS_P1;PMS_P2;Temp;Humidity;BMP_temperature;BMP_pressure;BME280_temperature;BME280_humidity;BME280_pressure;Samples;Min_cycle;Max_cycle;Signal;HPM_P1;HPM_P2
2021/07/11 00:00:00;;;;;;;7.90;5.73;;;18.20;99.90;;;;;;4994235;28;20191;-71
2021/07/11 00:02:25;;;;;;;8.43;6.00;;;18.10;99.90;;;;;;4995443;28;20184;-71
2021/07/11 00:04:51;;;;;;;7.40;6.00;;;18.10;99.90;;;;;;4978018;28;20586;-72
2021/07/11 00:07:16;;;;;;;8.20;6.63;;;18.10;99.90;;;;;;4994104;28;20200;-71
2021/07/11 00:09:42;;;;;;;9.43;6.57;;;18.10;99.90;;;;;;4993785;28;20203;-71
2021/07/11 00:12:08;;;;;;;7.63;6.37;;;18.10;99.90;;;;;;4977981;28;20185;-71
2021/07/11 00:14:33;;;;;;;7.73;5.70;;;18.00;99.90;;;;;;4977744;28;20187;-72
2021/07/11 00:16:59;;;;;;;9.63;6.47;;;18.00;99.90;;;;;;4993852;28;20263;-72
2021/07/11 00:19:24;;;;;;;8.50;6.73;;;18.00;99.90;;;;;;4977378;28;20292;-71
2021/07/11 00:21:50;;;;;;;9.53;6.60;;;18.00;99.90;;;;;;4993791;28;20185;-71
2021/07/11 00:24:15;;;;;;;8.97;6.87;;;18.00;99.90;;;;;;4994913;28;20560;-71
2021/07/11 00:26:41;;;;;;;8.67;6.23;;;18.00;99.90;;;;;;4994907;28;20698;-71
2021/07/11 00:29:06;;;;;;;8.97;6.90;;;18.00;99.90;;;;;;4994498;28;20212;-71
2021/07/11 00:31:32;;;;;;;9.00;6.87;;;18.00;99.90;;;;;;4993625;28;20176;-72
2021/07/11 00:33:57;;;;;;;7.47;6.17;;;18.00;99.90;;;;;;4977482;28;20595;-71
2021/07/11 00:36:23;;;;;;;10.97;6.87;;;18.00;99.90;;;;;;4993810;28;20593;-71
2021/07/11 00:38:48;;;;;;;7.40;6.60;;;18.00;99.90;;;;;;4993069;28;20290;-71
2021/07/11 00:41:14;;;;;;;8.43;7.00;;;18.00;99.90;;;;;;4993652;28;20241;-71
2021/07/11 00:43:39;;;;;;;10.27;7.33;;;18.00;99.90;;;;;;4993670;28;20647;-71
2021/07/11 00:46:05;;;;;;;9.07;6.60;;;18.10;99.90;;;;;;4993393;28;20731;-71
2021/07/11 00:48:31;;;;;;;8.57;6.47;;;18.10;99.90;;;;;;4977055;28;20219;-71
2021/07/11 00:50:57;;;;;;;10.43;7.10;;;18.10;99.90;;;;;;4994374;28;20176;-71
2021/07/11 00:53:22;;;;;;;8.37;7.20;;;18.20;99.90;;;;;;4977059;28;20179;-71
2021/07/11 00:55:48;;;;;;;10.17;7.60;;;18.20;99.90;;;;;;4993089;28;20184;-71
2021/07/11 00:58:14;;;;;;;8.80;7.23;;;18.20;99.90;;;;;;4961225;28;20207;-71
2021/07/11 01:00:42;;;;;;;8.47;6.83;;;18.20;99.90;;;;;;4992881;28;20263;-71
2021/07/11 01:03:25;;;;;;;8.30;7.37;;;18.30;99.90;;;;;;4961334;28;20621;-71
2021/07/11 01:05:50;;;;;;;8.87;6.87;;;18.50;99.90;;;;;;4993079;28;20644;-71
2021/07/11 01:08:54;;;;;;;9.77;7.30;;;18.50;99.90;;;;;;4959489;28;20270;-71
2021/07/11 01:11:21;;;;;;;10.37;7.80;;;18.50;99.90;;;;;;4994206;28;20207;-71
2021/07/11 01:13:46;;;;;;;9.87;8.03;;;18.40;99.90;;;;;;4960776;28;20180;-71
2021/07/11 01:16:17;;;;;;;13.60;8.20;;;18.40;99.90;;;;;;4976578;28;20230;-71
2021/07/11 01:18:42;;;;;;;12.30;7.57;;;18.40;99.90;;;;;;4992268;28;20212;-71
2021/07/11 01:21:13;;;;;;;10.47;8.63;;;18.20;99.90;;;;;;4976403;28;20409;-71
2021/07/11 01:24:00;;;;;;;11.57;8.57;;;17.90;99.90;;;;;;4976625;28;20811;-71
2021/07/11 01:26:27;;;;;;;10.70;8.47;;;17.60;99.90;;;;;;4993643;28;20616;-71
2021/07/11 01:28:53;;;;;;;9.67;8.37;;;17.50;99.90;;;;;;4993214;28;20615;-71
2021/07/11 01:31:19;;;;;;;11.43;9.37;;;17.40;99.90;;;;;;4992348;28;20192;-71
2021/07/11 01:33:45;;;;;;;13.47;9.43;;;17.30;99.90;;;;;;4976219;28;20243;-71
2021/07/11 01:36:11;;;;;;;12.40;9.70;;;17.30;99.90;;;;;;4992292;28;20188;-71
2021/07/11 01:38:37;;;;;;;13.27;10.47;;;17.30;99.90;;;;;;4976090;28;20204;-70
2021/07/11 01:41:03;;;;;;;12.90;10.13;;;17.40;99.90;;;;;;4992098;28;20176;-71
2021/07/11 01:43:29;;;;;;;14.27;10.50;;;17.40;99.90;;;;;;4975941;28;20278;-71
2021/07/11 01:45:55;;;;;;;13.20;10.90;;;17.30;99.90;;;;;;4976103;28;20188;-71
2021/07/11 01:48:20;;;;;;;13.47;10.80;;;17.30;99.90;;;;;;4976001;28;20211;-72
2021/07/11 01:50:53;;;;;;;16.40;11.67;;;17.20;99.90;;;;;;4959558;28;20275;-71
2021/07/11 01:53:26;;;;;;;14.90;11.80;;;17.30;99.90;;;;;;4959886;28;20184;-71
2021/07/11 01:55:52;;;;;;;15.57;11.30;;;17.30;99.90;;;;;;4992006;28;20173;-71
2021/07/11 01:58:18;;;;;;;13.53;11.23;;;17.30;99.90;;;;;;4975796;28;20573;-71
2021/07/11 02:00:44;;;;;;;16.70;11.70;;;17.20;99.90;;;;;;4975515;28;20192;-71
2021/07/11 02:03:17;;;;;;;16.53;12.20;;;17.20;99.90;;;;;;4991878;28;20194;-71
2021/07/11 02:05:42;;;;;;;17.17;12.63;;;17.10;99.90;;;;;;4991784;28;20180;-71
2021/07/11 02:08:08;;;;;;;18.40;12.40;;;17.10;99.90;;;;;;4975422;28;20206;-71
2021/07/11 02:10:34;;;;;;;14.73;11.60;;;17.10;99.90;;;;;;4975439;28;20180;-71
2021/07/11 02:13:05;;;;;;;15.17;12.37;;;17.10;99.90;;;;;;4991771;28;20262;-71
2021/07/11 02:15:31;;;;;;;14.80;11.83;;;17.00;99.90;;;;;;4975904;28;20632;-71
2021/07/11 02:17:57;;;;;;;17.17;11.87;;;17.00;99.90;;;;;;4974819;28;20301;-71
2021/07/11 02:20:23;;;;;;;15.43;11.70;;;17.00;99.90;;;;;;4991041;28;20258;-71
2021/07/11 02:22:49;;;;;;;13.77;11.23;;;17.00;99.90;;;;;;4959256;28;20188;-71
2021/07/11 02:25:16;;;;;;;15.53;11.87;;;16.90;99.90;;;;;;4975426;28;20191;-71
2021/07/11 02:27:46;;;;;;;15.40;11.47;;;16.90;99.90;;;;;;4975552;28;20203;-71
2021/07/11 02:30:16;;;;;;;14.23;11.47;;;16.90;99.90;;;;;;4991524;28;20302;-71
2021/07/11 02:32:44;;;;;;;18.87;13.13;;;16.80;99.90;;;;;;4991521;28;20643;-71
2021/07/11 02:35:11;;;;;;;17.53;12.40;;;16.80;99.90;;;;;;4975792;28;20544;-71
2021/07/11 02:37:38;;;;;;;16.47;12.27;;;16.80;99.90;;;;;;4959126;28;20232;-71
2021/07/11 02:40:05;;;;;;;17.30;12.00;;;16.80;99.90;;;;;;4975358;28;20179;-71
2021/07/11 02:42:31;;;;;;;16.60;12.63;;;16.80;99.90;;;;;;4992644;28;20678;-71
2021/07/11 02:44:56;;;;;;;15.70;11.97;;;16.80;99.90;;;;;;4975380;28;20187;-72
2021/07/11 02:47:25;;;;;;;16.70;12.93;;;16.80;99.90;;;;;;4975335;28;20235;-71
2021/07/11 02:49:52;;;;;;;17.53;12.83;;;16.80;99.90;;;;;;4975125;28;20204;-71
2021/07/11 02:52:18;;;;;;;16.83;12.00;;;16.80;99.90;;;;;;4991364;28;20718;-71
2021/07/11 02:55:04;;;;;;;16.77;12.47;;;16.80;99.90;;;;;;4975454;28;20176;-72
2021/07/11 02:57:30;;;;;;;16.30;11.97;;;16.80;99.90;;;;;;4976254;28;20283;-71
2021/07/11 02:59:55;;;;;;;17.03;12.80;;;16.80;99.90;;;;;;4974990;28;20259;-71
2021/07/11 03:02:23;;;;;;;17.07;13.13;;;16.80;99.90;;;;;;4991358;28;20180;-71
2021/07/11 03:04:50;;;;;;;17.13;12.83;;;16.90;99.90;;;;;;4975205;28;20798;-71
2021/07/11 03:07:16;;;;;;;19.40;11.90;;;16.90;99.90;;;;;;4991181;28;20196;-71
2021/07/11 03:09:42;;;;;;;15.07;11.73;;;16.80;99.90;;;;;;4974852;28;20262;-71
2021/07/11 03:12:07;;;;;;;16.90;11.77;;;16.90;99.90;;;;;;4974964;28;20271;-71
2021/07/11 03:14:33;;;;;;;16.23;11.77;;;16.90;99.90;;;;;;4975157;28;20655;-71
2021/07/11 03:16:59;;;;;;;14.47;11.67;;;16.90;99.90;;;;;;4974754;28;20599;-71
2021/07/11 03:19:26;;;;;;;14.83;10.70;;;16.90;99.90;;;;;;4974782;28;20207;-71
2021/07/11 03:21:51;;;;;;;14.73;10.90;;;16.90;99.90;;;;;;4975230;28;20554;-71
2021/07/11 03:24:27;;;;;;;13.77;10.67;;;16.80;99.90;;;;;;4991095;28;20194;-71
2021/07/11 03:26:54;;;;;;;21.17;11.03;;;16.90;99.90;;;;;;4975138;28;20183;-71
2021/07/11 03:29:29;;;;;;;14.07;10.57;;;16.90;99.90;;;;;;4958662;28;20263;-71
2021/07/11 03:31:55;;;;;;;15.03;10.63;;;16.80;99.90;;;;;;4994084;28;20182;-71
2021/07/11 03:34:25;;;;;;;17.97;11.33;;;16.80;99.90;;;;;;4994718;28;20173;-71
2021/07/11 03:36:50;;;;;;;12.43;9.77;;;16.80;99.90;;;;;;4962667;28;20180;-71
2021/07/11 03:39:16;;;;;;;14.17;10.40;;;16.90;99.90;;;;;;4978081;28;20703;-71
2021/07/11 03:41:41;;;;;;;14.27;10.47;;;16.90;99.90;;;;;;4978922;28;20682;-71
2021/07/11 03:44:07;;;;;;;13.10;9.43;;;16.80;99.90;;;;;;4994624;28;20186;-71
2021/07/11 03:46:33;;;;;;;12.53;9.63;;;16.90;99.90;;;;;;4962308;28;20188;-71
2021/07/11 03:49:01;;;;;;;13.00;10.30;;;16.90;99.90;;;;;;4994171;28;20215;-71
2021/07/11 03:51:29;;;;;;;16.20;9.70;;;16.90;99.90;;;;;;4978394;28;20186;-71
2021/07/11 03:53:55;;;;;;;15.77;10.40;;;16.90;99.90;;;;;;4978320;28;20183;-71
2021/07/11 03:56:24;;;;;;;15.23;10.57;;;16.90;99.90;;;;;;4978334;28;20667;-71
2021/07/11 03:58:49;;;;;;;16.13;11.33;;;16.90;99.90;;;;;;4978391;28;20267;-71
2021/07/11 04:01:15;;;;;;;15.70;11.30;;;16.90;99.90;;;;;;4978423;28;20295;-71
2021/07/11 04:03:41;;;;;;;16.10;10.63;;;16.90;99.90;;;;;;4978391;28;20207;-71
2021/07/11 04:06:10;;;;;;;19.43;12.27;;;16.90;99.90;;;;;;4977940;28;20263;-71
2021/07/11 04:08:36;;;;;;;19.13;12.67;;;16.90;99.90;;;;;;4993731;28;20240;-71
2021/07/11 04:11:01;;;;;;;18.00;12.30;;;16.90;99.90;;;;;;4977618;28;20200;-71
2021/07/11 04:13:27;;;;;;;20.20;13.77;;;16.80;99.90;;;;;;4977746;28;20709;-71
2021/07/11 04:15:57;;;;;;;20.23;13.73;;;16.90;99.90;;;;;;4977771;28;20180;-71
2021/07/11 04:18:23;;;;;;;20.73;14.80;;;16.90;99.90;;;;;;4977730;28;20231;-71
2021/07/11 04:20:51;;;;;;;19.23;14.13;;;16.90;99.90;;;;;;4977699;28;20180;-71
2021/07/11 04:23:16;;;;;;;20.77;13.80;;;16.90;99.90;;;;;;4993984;28;20612;-71
2021/07/11 04:25:44;;;;;;;20.60;15.03;;;16.90;99.90;;;;;;4977538;28;20180;-71
2021/07/11 04:28:10;;;;;;;21.40;15.33;;;16.90;99.90;;;;;;4977694;28;20211;-71
2021/07/11 04:30:36;;;;;;;20.20;14.33;;;16.90;99.90;;;;;;4977498;28;20726;-71
2021/07/11 04:33:02;;;;;;;24.73;14.93;;;16.90;99.90;;;;;;4977433;28;20262;-71
2021/07/11 04:35:28;;;;;;;20.37;14.50;;;16.90;99.90;;;;;;4977401;28;20215;-71
2021/07/11 04:37:53;;;;;;;23.93;15.07;;;16.90;99.90;;;;;;4993351;28;20192;-71
2021/07/11 04:40:19;;;;;;;24.03;15.17;;;16.90;99.90;;;;;;4993212;28;20175;-71
2021/07/11 04:42:45;;;;;;;21.17;14.50;;;16.90;99.90;;;;;;4977103;28;20267;-71
2021/07/11 04:45:10;;;;;;;20.77;14.67;;;16.90;99.90;;;;;;4994464;28;20172;-71
2021/07/11 04:47:36;;;;;;;23.50;15.80;;;17.00;99.90;;;;;;4993263;28;20192;-71
2021/07/11 04:50:02;;;;;;;22.93;15.87;;;17.00;99.90;;;;;;4976958;28;20258;-71
2021/07/11 04:52:28;;;;;;;23.07;16.30;;;17.00;99.90;;;;;;4977025;28;20648;-71
2021/07/11 04:54:53;;;;;;;22.50;15.27;;;17.00;99.90;;;;;;4993047;28;20280;-71
2021/07/11 04:57:22;;;;;;;18.53;14.23;;;16.90;99.90;;;;;;4994290;28;20200;-71
2021/07/11 04:59:47;;;;;;;23.13;15.47;;;16.90;99.90;;;;;;4976660;28;20186;-71
2021/07/11 05:02:13;;;;;;;24.27;16.33;;;16.90;99.90;;;;;;4976905;28;20670;-71
2021/07/11 05:04:38;;;;;;;22.67;15.57;;;17.00;99.90;;;;;;4994294;28;20234;-71
2021/07/11 05:09:31;;;;;;;22.47;15.47;;;17.00;99.90;;;;;;5031907;22;20286;-71
2021/07/11 05:11:57;;;;;;;22.93;15.70;;;17.00;99.90;;;;;;4977031;28;20707;-71
2021/07/11 05:14:22;;;;;;;20.40;15.07;;;16.90;99.90;;;;;;4993148;28;20765;-71
2021/07/11 05:16:48;;;;;;;28.07;15.40;;;17.00;99.90;;;;;;4992846;28;20678;-71
2021/07/11 05:19:13;;;;;;;21.63;15.37;;;17.00;99.90;;;;;;4976336;28;20605;-71
2021/07/11 05:21:39;;;;;;;22.43;15.70;;;17.10;99.90;;;;;;4992716;28;20512;-71
2021/07/11 05:24:05;;;;;;;23.03;16.13;;;17.10;99.90;;;;;;4994000;28;20201;-71
2021/07/11 05:26:30;;;;;;;25.43;16.47;;;17.10;99.90;;;;;;4994050;28;20650;-71
2021/07/11 05:28:56;;;;;;;23.27;15.97;;;17.10;99.90;;;;;;4992252;28;20221;-71
2021/07/11 05:31:21;;;;;;;22.97;14.67;;;17.10;99.90;;;;;;4992553;28;20184;-71
2021/07/11 05:33:47;;;;;;;20.47;14.93;;;17.10;99.90;;;;;;4992682;28;20200;-71
2021/07/11 05:36:12;;;;;;;23.37;15.80;;;17.10;99.90;;;;;;4992563;28;20185;-72
2021/07/11 05:38:38;;;;;;;22.47;15.50;;;17.20;99.90;;;;;;4960021;28;20205;-71
2021/07/11 05:41:04;;;;;;;23.07;16.37;;;17.10;99.90;;;;;;4960151;28;20184;-71
2021/07/11 05:43:29;;;;;;;24.33;16.30;;;17.10;99.90;;;;;;4976490;28;20183;-71
2021/07/11 05:45:55;;;;;;;24.63;16.07;;;17.20;99.90;;;;;;4976180;28;20176;-71
2021/07/11 05:48:21;;;;;;;24.77;16.30;;;17.20;99.90;;;;;;4993501;28;20290;-71
2021/07/11 05:50:46;;;;;;;27.07;15.77;;;17.30;99.90;;;;;;4993368;28;20200;-71
2021/07/11 05:53:12;;;;;;;26.43;16.97;;;17.20;99.90;;;;;;4993222;28;20706;-71
2021/07/11 05:55:38;;;;;;;22.67;15.60;;;17.20;99.90;;;;;;4991826;28;20176;-71
2021/07/11 05:58:04;;;;;;;23.17;15.83;;;17.20;99.90;;;;;;4992376;28;20271;-71
2021/07/11 06:00:30;;;;;;;23.00;15.80;;;17.20;99.90;;;;;;4991838;28;20339;-71
2021/07/11 06:02:55;;;;;;;26.23;17.70;;;17.20;99.90;;;;;;4993325;28;20655;-71
2021/07/11 06:05:21;;;;;;;24.23;16.50;;;17.20;99.90;;;;;;4959738;28;20186;-71
2021/07/11 06:07:46;;;;;;;25.20;17.03;;;17.20;99.90;;;;;;4993008;28;20207;-71
2021/07/11 06:10:12;;;;;;;23.50;16.60;;;17.20;99.90;;;;;;4975571;28;20182;-71
2021/07/11 06:12:38;;;;;;;25.10;17.10;;;17.20;99.90;;;;;;4975915;28;20191;-71
2021/07/11 06:15:04;;;;;;;24.13;16.70;;;17.20;99.90;;;;;;4992129;28;20263;-71
2021/07/11 06:17:32;;;;;;;21.63;15.63;;;17.30;99.90;;;;;;4991910;28;20278;-71
2021/07/11 06:20:00;;;;;;;27.60;16.93;;;17.30;99.90;;;;;;4975995;28;20180;-71
2021/07/11 06:22:26;;;;;;;26.20;17.00;;;17.30;99.90;;;;;;4991777;28;20615;-71
2021/07/11 06:24:52;;;;;;;24.47;16.43;;;17.30;99.90;;;;;;4992987;28;20176;-71
2021/07/11 06:27:17;;;;;;;27.20;17.20;;;17.30;99.90;;;;;;4975435;28;20239;-71
2021/07/11 06:29:43;;;;;;;23.00;16.23;;;17.30;99.90;;;;;;4992467;28;20295;-71
2021/07/11 06:32:08;;;;;;;22.53;16.20;;;17.40;99.90;;;;;;4992971;28;20173;-71
2021/07/11 06:34:34;;;;;;;25.37;17.50;;;17.40;99.90;;;;;;4959472;28;20184;-71
2021/07/11 06:36:59;;;;;;;24.73;17.37;;;17.50;99.90;;;;;;4975545;28;20288;-71
2021/07/11 06:39:25;;;;;;;27.17;16.80;;;17.50;99.90;;;;;;4991247;28;20202;-71
2021/07/11 06:41:50;;;;;;;24.70;16.90;;;17.50;99.90;;;;;;4991773;28;20529;-71
2021/07/11 06:44:16;;;;;;;24.80;16.30;;;17.50;99.90;;;;;;4975369;28;20582;-71
2021/07/11 06:46:42;;;;;;;26.73;16.37;;;17.60;99.90;;;;;;4975504;28;20276;-71
2021/07/11 06:49:07;;;;;;;23.63;16.43;;;17.60;99.90;;;;;;4991138;28;20197;-71
2021/07/11 06:51:33;;;;;;;25.80;17.10;;;17.70;99.90;;;;;;4991433;28;20701;-71
2021/07/11 06:53:58;;;;;;;23.30;16.17;;;17.60;99.90;;;;;;4991542;28;20692;-71
2021/07/11 06:56:24;;;;;;;24.80;16.73;;;17.60;99.90;;;;;;4991448;28;20204;-71
2021/07/11 06:58:49;;;;;;;25.80;17.53;;;17.60;99.90;;;;;;4992276;28;20204;-71
2021/07/11 07:01:15;;;;;;;27.00;17.97;;;17.60;99.90;;;;;;4975362;28;20188;-71
2021/07/11 07:03:40;;;;;;;31.37;17.73;;;17.60;99.90;;;;;;4992571;28;20173;-71
2021/07/11 07:06:07;;;;;;;30.23;18.07;;;17.70;99.90;;;;;;4993614;28;20195;-72
2021/07/11 07:08:33;;;;;;;27.60;18.13;;;17.60;99.90;;;;;;4994975;28;20234;-71
2021/07/11 07:10:58;;;;;;;27.70;17.93;;;17.70;99.90;;;;;;4995041;28;20644;-71
2021/07/11 07:13:24;;;;;;;28.27;18.43;;;17.70;99.90;;;;;;4979207;28;20263;-72
2021/07/11 07:15:49;;;;;;;27.67;17.83;;;17.70;99.90;;;;;;4979098;28;20252;-72
2021/07/11 07:18:15;;;;;;;29.83;18.70;;;17.70;99.90;;;;;;4995077;28;20200;-72
2021/07/11 07:20:41;;;;;;;29.03;18.17;;;17.80;99.90;;;;;;4978678;28;20187;-71
2021/07/11 07:23:06;;;;;;;33.03;19.33;;;17.80;99.90;;;;;;4978874;28;20176;-72
2021/07/11 07:25:32;;;;;;;29.50;18.30;;;17.80;99.90;;;;;;4978684;28;20271;-71
2021/07/11 07:27:57;;;;;;;31.40;18.23;;;17.80;99.90;;;;;;4994641;28;20204;-71
2021/07/11 07:30:23;;;;;;;30.80;19.13;;;17.70;99.90;;;;;;4995742;28;20179;-72
2021/07/11 07:32:49;;;;;;;33.63;19.97;;;17.70;99.90;;;;;;4995814;28;20694;-72
2021/07/11 07:35:18;;;;;;;35.13;21.23;;;17.80;99.90;;;;;;4978518;28;20168;-71
2021/07/11 07:37:45;;;;;;;35.53;20.47;;;17.70;99.90;;;;;;4978208;28;20234;-72
2021/07/11 07:40:11;;;;;;;36.93;21.47;;;17.80;99.90;;;;;;4994412;28;20184;-72
2021/07/11 07:42:37;;;;;;;37.83;21.67;;;17.80;99.90;;;;;;4962437;28;20718;-71
2021/07/11 07:45:03;;;;;;;37.17;20.90;;;17.80;99.90;;;;;;4995847;28;20176;-71
2021/07/11 07:47:29;;;;;;;37.87;21.10;;;17.80;99.90;;;;;;4978376;28;20210;-71
2021/07/11 07:49:54;;;;;;;36.00;21.30;;;17.90;99.90;;;;;;4994134;28;20204;-72
2021/07/11 07:52:20;;;;;;;39.53;22.23;;;17.90;99.90;;;;;;4994522;28;20204;-72
2021/07/11 07:54:45;;;;;;;37.77;21.80;;;17.90;99.90;;;;;;4994528;28;20671;-71
2021/07/11 07:57:11;;;;;;;39.10;22.03;;;18.00;99.90;;;;;;4978121;28;20188;-71
2021/07/11 07:59:36;;;;;;;38.93;21.53;;;18.00;99.90;;;;;;4994091;28;20173;-71
2021/07/11 08:02:02;;;;;;;35.97;20.83;;;18.10;99.90;;;;;;4995511;28;20176;-71
2021/07/11 08:04:28;;;;;;;43.57;22.23;;;18.10;99.90;;;;;;4995278;28;20180;-72
2021/07/11 08:06:53;;;;;;;40.47;21.97;;;18.30;99.90;;;;;;4977929;28;20549;-71
2021/07/11 08:09:19;;;;;;;38.90;21.60;;;18.40;99.90;;;;;;4993679;28;20294;-72
2021/07/11 08:11:45;;;;;;;35.63;20.23;;;18.40;99.90;;;;;;4977902;28;20198;-71
2021/07/11 08:14:10;;;;;;;35.57;21.00;;;18.50;99.90;;;;;;4977818;28;20180;-72
2021/07/11 08:16:36;;;;;;;38.57;21.10;;;18.60;99.90;;;;;;4994632;28;20707;-72
2021/07/11 08:19:02;;;;;;;36.83;21.30;;;18.70;99.90;;;;;;4977279;28;20421;-72
2021/07/11 08:21:29;;;;;;;34.73;20.53;;;18.90;99.90;;;;;;4993883;28;20169;-72
2021/07/11 08:23:55;;;;;;;34.80;20.00;;;18.80;99.90;;;;;;4977940;28;20200;-71
2021/07/11 08:26:20;;;;;;;41.77;20.37;;;18.90;99.90;;;;;;4977654;28;20201;-71
2021/07/11 08:28:46;;;;;;;38.10;22.07;;;18.90;99.90;;;;;;4993431;28;20208;-71
2021/07/11 08:31:11;;;;;;;39.13;21.30;;;19.00;99.90;;;;;;4993785;28;20180;-71
2021/07/11 08:33:37;;;;;;;35.27;19.57;;;19.10;99.90;;;;;;4994777;28;20260;-72
2021/07/11 08:36:03;;;;;;;33.33;19.40;;;19.20;99.90;;;;;;4993636;28;20204;-70
2021/07/11 08:38:28;;;;;;;38.87;21.77;;;19.30;99.90;;;;;;4993850;28;20204;-72
2021/07/11 08:40:54;;;;;;;38.27;22.03;;;19.40;99.90;;;;;;4993657;28;20187;-72
2021/07/11 08:43:20;;;;;;;34.90;21.30;;;19.50;99.90;;;;;;4993636;28;20184;-72
2021/07/11 08:45:45;;;;;;;37.07;21.67;;;19.70;99.90;;;;;;4977435;28;20549;-71
2021/07/11 08:48:12;;;;;;;42.97;23.93;;;19.60;99.90;;;;;;4993499;28;20196;-72
2021/07/11 08:50:37;;;;;;;42.03;24.27;;;19.60;99.90;;;;;;4993222;28;20184;-72
2021/07/11 08:53:03;;;;;;;44.80;23.47;;;19.60;99.90;;;;;;4994748;28;20173;-72
2021/07/11 08:55:29;;;;;;;40.63;23.57;;;19.60;99.90;;;;;;4977440;28;20207;-72
2021/07/11 08:57:59;;;;;;;39.87;23.03;;;19.60;99.90;;;;;;4993421;28;20663;-71
2021/07/11 09:00:32;;;;;;;44.23;24.07;;;19.60;99.90;;;;;;4994169;28;20172;-71
2021/07/11 09:02:58;;;;;;;46.03;25.33;;;19.60;99.90;;;;;;4961597;28;20184;-72
2021/07/11 09:05:27;;;;;;;42.50;23.63;;;19.70;99.90;;;;;;4960731;28;20177;-71
2021/07/11 09:08:11;;;;;;;39.13;23.70;;;19.70;99.90;;;;;;4992911;28;20214;-72
2021/07/11 09:10:46;;;;;;;37.60;21.27;;;20.00;99.90;;;;;;4992594;28;20180;-72
2021/07/11 09:13:13;;;;;;;39.53;22.27;;;20.30;99.90;;;;;;4992853;28;20235;-72
2021/07/11 09:15:42;;;;;;;40.43;22.67;;;20.40;99.90;;;;;;4992871;28;20188;-72
2021/07/11 09:18:08;;;;;;;35.80;21.50;;;20.50;99.90;;;;;;4976969;28;20664;-71
2021/07/11 09:20:55;;;;;;;36.03;21.47;;;20.50;99.90;;;;;;4976517;28;20173;-71
2021/07/11 09:23:22;;;;;;;37.47;21.47;;;20.60;99.90;;;;;;4992677;28;20237;-71
2021/07/11 09:26:13;;;;;;;35.97;21.67;;;20.80;99.90;;;;;;4993676;28;20230;-71
2021/07/11 09:28:43;;;;;;;35.27;21.77;;;20.80;99.90;;;;;;4960101;28;20723;-71
2021/07/11 09:31:13;;;;;;;33.93;22.17;;;20.90;99.90;;;;;;4977053;28;20177;-71
2021/07/11 09:33:41;;;;;;;35.57;22.77;;;20.80;99.90;;;;;;4976958;28;20177;-71
2021/07/11 09:36:18;;;;;;;37.13;22.33;;;20.80;99.90;;;;;;4976339;28;20662;-72
2021/07/11 09:38:48;;;;;;;32.63;20.90;;;21.10;99.90;;;;;;4993331;28;20299;-71
2021/07/11 09:41:24;;;;;;;32.23;21.30;;;21.20;99.90;;;;;;4992240;28;20234;-71
2021/07/11 09:43:50;;;;;;;36.70;21.60;;;21.30;99.90;;;;;;4993752;28;20721;-71
2021/07/11 09:46:16;;;;;;;35.33;21.53;;;21.50;99.90;;;;;;4976398;28;20181;-71
2021/07/11 09:48:42;;;;;;;32.63;22.20;;;21.50;99.90;;;;;;4975678;28;20226;-72
2021/07/11 09:51:18;;;;;;;31.77;20.70;;;21.40;99.90;;;;;;4976197;28;20172;-71
2021/07/11 09:53:44;;;;;;;32.37;22.03;;;21.40;99.90;;;;;;4976168;28;20231;-71
2021/07/11 09:56:28;;;;;;;33.00;21.57;;;21.40;99.90;;;;;;4976024;28;20172;-72
2021/07/11 09:58:57;;;;;;;31.80;20.90;;;21.30;99.90;;;;;;4993000;28;20192;-72
2021/07/11 10:01:23;;;;;;;30.60;20.77;;;21.10;99.90;;;;;;4993249;28;20180;-71
2021/07/11 10:03:48;;;;;;;36.23;22.37;;;21.00;99.90;;;;;;4992101;28;20179;-71
2021/07/11 10:06:14;;;;;;;34.10;21.47;;;21.00;99.90;;;;;;4993046;28;20208;-72
2021/07/11 10:08:39;;;;;;;32.57;21.83;;;20.90;99.90;;;;;;4991458;28;20975;-71
2021/07/11 10:11:05;;;;;;;33.07;21.67;;;20.90;99.90;;;;;;4991980;28;20176;-72
2021/07/11 10:13:31;;;;;;;29.53;20.03;;;20.80;99.90;;;;;;4959676;28;20339;-72
2021/07/11 10:15:56;;;;;;;30.23;20.07;;;20.80;99.90;;;;;;4991835;28;20190;-71
2021/07/11 10:18:22;;;;;;;30.37;20.13;;;20.90;99.90;;;;;;4991728;28;20231;-71
2021/07/11 10:20:53;;;;;;;31.37;19.70;;;21.10;99.90;;;;;;4975260;28;20252;-72
2021/07/11 10:23:32;;;;;;;33.37;20.30;;;21.20;99.90;;;;;;4976373;28;20180;-71
2021/07/11 10:26:04;;;;;;;32.63;20.13;;;21.20;99.90;;;;;;4991823;28;20176;-71
2021/07/11 10:28:31;;;;;;;34.73;21.40;;;21.20;99.90;;;;;;4976223;28;20206;-71
2021/07/11 10:30:57;;;;;;;32.90;20.67;;;21.40;99.90;;;;;;4991559;28;20176;-72
2021/07/11 10:33:23;;;;;;;39.10;21.57;;;21.60;99.90;;;;;;4993192;28;20211;-71
2021/07/11 10:35:58;;;;;;;35.53;22.17;;;21.70;99.90;;;;;;4975514;28;20263;-71
2021/07/11 10:38:27;;;;;;;34.23;20.93;;;21.70;99.90;;;;;;4991664;28;20199;-72
2021/07/11 10:40:52;;;;;;;34.97;22.03;;;21.60;99.90;;;;;;4992381;28;20184;-72
2021/07/11 10:43:18;;;;;;;36.27;21.37;;;21.60;99.90;;;;;;4991820;28;20172;-72
2021/07/11 10:45:45;;;;;;;37.03;22.53;;;21.90;99.90;;;;;;4992926;28;20184;-72
2021/07/11 10:48:10;;;;;;;33.50;21.27;;;22.20;99.90;;;;;;4991490;28;20196;-72
2021/07/11 10:50:40;;;;;;;34.93;20.30;;;22.40;99.90;;;;;;4975457;28;20598;-72
2021/07/11 10:53:15;;;;;;;32.23;19.60;;;22.50;99.90;;;;;;4975460;28;20628;-71
2021/07/11 10:55:43;;;;;;;29.13;18.10;;;22.60;99.90;;;;;;4975885;28;20168;-72
2021/07/11 10:58:18;;;;;;;27.17;17.73;;;22.70;99.90;;;;;;4991512;28;20192;-72
2021/07/11 11:00:45;;;;;;;29.17;18.93;;;22.90;99.90;;;;;;4991385;28;20259;-72
2021/07/11 11:03:19;;;;;;;31.17;19.43;;;22.90;99.90;;;;;;4975485;28;20632;-72
2021/07/11 11:05:44;;;;;;;36.73;21.53;;;23.00;99.90;;;;;;4959295;28;20172;-71
2021/07/11 11:08:28;;;;;;;36.37;23.27;;;22.80;99.90;;;;;;5000372;23;20796;-83
2021/07/11 11:10:54;;;;;;;40.23;24.23;;;22.60;99.90;;;;;;4968261;28;20247;-83
2021/07/11 11:13:25;;;;;;;39.07;24.40;;;22.20;99.90;;;;;;4967229;28;20168;-82
2021/07/11 11:16:02;;;;;;;40.77;24.47;;;21.90;99.90;;;;;;4966477;28;20187;-82
2021/07/11 11:18:31;;;;;;;37.80;23.30;;;21.70;99.90;;;;;;4968364;28;20227;-82
2021/07/11 11:21:12;;;;;;;42.47;24.47;;;21.40;99.90;;;;;;5000258;28;20207;-85
2021/07/11 11:23:42;;;;;;;43.87;25.57;;;21.20;99.90;;;;;;4984064;28;20176;-83
2021/07/11 11:26:09;;;;;;;43.00;24.70;;;21.10;99.90;;;;;;4966055;28;20200;-82
2021/07/11 11:28:39;;;;;;;39.20;23.43;;;21.10;99.90;;;;;;4965925;28;20262;-84
2021/07/11 11:31:22;;;;;;;40.70;23.83;;;21.20;99.90;;;;;;4966101;28;20176;-84
2021/07/11 11:33:49;;;;;;;36.10;21.40;;;21.40;99.90;;;;;;4981812;28;20173;-82
2021/07/11 11:36:30;;;;;;;37.23;22.33;;;21.60;99.90;;;;;;4966368;28;20180;-82
2021/07/11 11:38:56;;;;;;;39.50;22.37;;;21.90;99.90;;;;;;4966327;28;20200;-83
2021/07/11 11:41:22;;;;;;;42.23;23.33;;;22.20;99.90;;;;;;4965527;28;20616;-83
2021/07/11 11:43:48;;;;;;;44.20;24.43;;;22.60;99.90;;;;;;4966072;28;20185;-82
2021/07/11 11:46:24;;;;;;;44.93;24.43;;;22.70;99.90;;;;;;4967841;28;20181;-82
2021/07/11 11:48:54;;;;;;;45.17;25.27;;;22.80;99.90;;;;;;4983242;28;20208;-82
2021/07/11 11:51:19;;;;;;;41.10;22.63;;;22.80;99.90;;;;;;4983713;28;20647;-84
2021/07/11 11:53:45;;;;;;;41.33;22.60;;;23.00;99.90;;;;;;4985608;28;20256;-82
2021/07/11 11:56:12;;;;;;;38.80;22.03;;;23.30;99.90;;;;;;4969170;28;20180;-83
2021/07/11 11:58:37;;;;;;;37.00;21.53;;;23.50;99.90;;;;;;4969816;28;20204;-85
2021/07/11 12:01:04;;;;;;;37.43;21.67;;;23.60;99.90;;;;;;4986138;28;20724;-82
2021/07/11 12:03:30;;;;;;;38.07;22.77;;;23.60;99.90;;;;;;4965128;28;20184;-83
2021/07/11 12:05:59;;;;;;;36.67;20.90;;;23.50;99.90;;;;;;4964710;28;20184;-84
2021/07/11 12:08:24;;;;;;;36.77;21.43;;;23.40;99.90;;;;;;4964297;28;20262;-84
2021/07/11 12:10:50;;;;;;;35.77;19.93;;;23.50;99.90;;;;;;4964444;28;20200;-84
2021/07/11 12:13:23;;;;;;;38.17;20.77;;;23.70;99.90;;;;;;4964344;28;20177;-83
2021/07/11 12:15:49;;;;;;;35.13;20.03;;;23.90;99.90;;;;;;4996474;28;20168;-82
2021/07/11 12:18:15;;;;;;;33.70;19.40;;;23.90;99.90;;;;;;4982200;28;20204;-83
2021/07/11 12:20:50;;;;;;;32.27;20.03;;;24.00;99.90;;;;;;4965343;28;20640;-85
2021/07/11 12:23:15;;;;;;;30.10;17.67;;;24.00;99.90;;;;;;4965129;28;20222;-85
2021/07/11 12:25:43;;;;;;;28.67;18.33;;;23.80;99.90;;;;;;4963605;28;20239;-84
2021/07/11 12:28:12;;;;;;;31.58;18.40;;;23.80;99.90;;;;;;4964205;28;20206;-85
2021/07/11 12:30:41;;;;;;;26.58;17.83;;;23.80;99.90;;;;;;4980240;28;20516;-85